Time;durP1;ratioP1;P1;durP2;ratioP2;P2;SDS_P1;SDS_P2;PMS_P1;PMS_P2;Temp;Humidity;BMP_temperature;BMP_pressure;BME280_temperature;BME280_humidity;BME280_pressure;Samples;Min_cycle;Max_cycle;Signal;HPM_P1;HPM_P2
2021/01/08 00:00:10;;;;;;;30.63;25.45;;;;;;;;;;5017368;28;20710;-77
2021/01/08 00:02:36;;;;;;;30.02;24.63;;;;;;;;;;5016996;28;20370;-77
2021/01/08 00:05:02;;;;;;;29.40;23.90;;;;;;;;;;4999132;28;20846;-77
2021/01/08 00:07:32;;;;;;;32.97;27.20;;;;;;;;;;5016396;28;20373;-77
2021/01/08 00:09:58;;;;;;;31.52;26.17;;;;;;;;;;5016618;28;20445;-77
2021/01/08 00:12:24;;;;;;;31.63;25.77;;;;;;;;;;4998803;28;20409;-77
2021/01/08 00:14:50;;;;;;;31.58;25.10;;;;;;;;;;4998448;28;20364;-76
2021/01/08 00:17:17;;;;;;;31.43;25.33;;;;;;;;;;5016168;28;20363;-77
2021/01/08 00:19:43;;;;;;;29.30;24.27;;;;;;;;;;4998951;28;20366;-78
2021/01/08 00:22:09;;;;;;;31.50;25.42;;;;;;;;;;4998855;28;20846;-77
2021/01/08 00:24:35;;;;;;;31.58;24.90;;;;;;;;;;5016626;28;20377;-77
2021/01/08 00:27:05;;;;;;;32.17;25.80;;;;;;;;;;5016131;28;20370;-77
2021/01/08 00:29:31;;;;;;;31.10;25.75;;;;;;;;;;5015939;28;20913;-78
2021/01/08 00:31:57;;;;;;;30.60;25.23;;;;;;;;;;5016272;28;20426;-78
2021/01/08 00:34:23;;;;;;;31.63;25.23;;;;;;;;;;4999055;28;20409;-77
2021/01/08 00:36:50;;;;;;;33.92;26.40;;;;;;;;;;4999058;28;20498;-77
2021/01/08 00:39:18;;;;;;;32.33;25.52;;;;;;;;;;4998711;28;20383;-77
2021/01/08 00:41:44;;;;;;;31.10;25.60;;;;;;;;;;5016050;28;20422;-77
2021/01/08 00:44:10;;;;;;;32.85;26.05;;;;;;;;;;5015858;28;21093;-77
2021/01/08 00:46:37;;;;;;;33.22;26.33;;;;;;;;;;5015795;28;20407;-77
2021/01/08 00:49:04;;;;;;;32.42;25.60;;;;;;;;;;5016042;28;20359;-77
2021/01/08 00:51:30;;;;;;;32.78;26.25;;;;;;;;;;5015592;28;20522;-77
2021/01/08 00:53:56;;;;;;;34.78;27.70;;;;;;;;;;5015828;28;20362;-77
2021/01/08 00:56:22;;;;;;;32.72;25.55;;;;;;;;;;5016180;28;20481;-77
2021/01/08 00:58:48;;;;;;;33.65;26.33;;;;;;;;;;5015844;28;20363;-78
2021/01/08 01:01:15;;;;;;;32.83;26.65;;;;;;;;;;5015416;28;20726;-77
2021/01/08 01:03:41;;;;;;;34.00;27.23;;;;;;;;;;5015576;28;20391;-77
2021/01/08 01:06:07;;;;;;;32.92;26.17;;;;;;;;;;5015998;28;20359;-77
2021/01/08 01:08:33;;;;;;;34.08;26.67;;;;;;;;;;5015885;28;20359;-77
2021/01/08 01:11:00;;;;;;;32.85;25.90;;;;;;;;;;5015219;28;20402;-77
2021/01/08 01:13:26;;;;;;;34.33;26.35;;;;;;;;;;5015805;28;20399;-77
2021/01/08 01:15:52;;;;;;;33.13;26.38;;;;;;;;;;5015492;28;20366;-77
2021/01/08 01:18:19;;;;;;;33.15;26.80;;;;;;;;;;5015497;28;20378;-78
2021/01/08 01:20:45;;;;;;;33.70;26.25;;;;;;;;;;5015320;28;21028;-77
2021/01/08 01:23:11;;;;;;;35.80;28.25;;;;;;;;;;5015492;28;20367;-77
2021/01/08 01:25:37;;;;;;;35.25;26.45;;;;;;;;;;5015346;28;20359;-77
2021/01/08 01:28:03;;;;;;;33.70;26.42;;;;;;;;;;4997947;28;20373;-77
2021/01/08 01:30:31;;;;;;;32.67;26.63;;;;;;;;;;4998084;28;20426;-77
2021/01/08 01:32:58;;;;;;;35.03;27.05;;;;;;;;;;4996843;28;20429;-78
2021/01/08 01:35:24;;;;;;;35.17;27.13;;;;;;;;;;5015043;28;20359;-77
2021/01/08 01:37:51;;;;;;;35.80;27.63;;;;;;;;;;5015162;28;20371;-77
2021/01/08 01:40:17;;;;;;;32.03;25.58;;;;;;;;;;4997431;28;20379;-77
2021/01/08 01:42:43;;;;;;;34.55;26.60;;;;;;;;;;4997597;28;20374;-77
2021/01/08 01:45:09;;;;;;;33.23;26.43;;;;;;;;;;5014453;28;20722;-78
2021/01/08 01:47:35;;;;;;;34.80;27.42;;;;;;;;;;5014004;28;20431;-79
2021/01/08 01:50:01;;;;;;;33.00;26.63;;;;;;;;;;4996885;28;20438;-77
2021/01/08 01:52:28;;;;;;;37.22;27.75;;;;;;;;;;5014399;28;20363;-77
2021/01/08 01:54:54;;;;;;;37.53;29.05;;;;;;;;;;5014291;28;20360;-77
2021/01/08 01:57:20;;;;;;;34.78;28.23;;;;;;;;;;4997479;28;20830;-77
2021/01/08 01:59:46;;;;;;;34.70;26.67;;;;;;;;;;5014267;28;20372;-77
2021/01/08 02:02:32;;;;;;;34.15;26.67;;;;;;;;;;4996778;28;20410;-77
2021/01/08 02:04:59;;;;;;;36.33;28.50;;;;;;;;;;4996417;28;20371;-77
2021/01/08 02:07:27;;;;;;;38.08;28.63;;;;;;;;;;5014368;28;20368;-77
2021/01/08 02:09:53;;;;;;;38.67;28.93;;;;;;;;;;4997084;28;20364;-77
2021/01/08 02:12:20;;;;;;;35.35;27.48;;;;;;;;;;5014275;28;20371;-77
2021/01/08 02:14:47;;;;;;;34.40;27.90;;;;;;;;;;5013882;28;20873;-77
2021/01/08 02:17:15;;;;;;;36.90;28.70;;;;;;;;;;5014539;28;20382;-77
2021/01/08 02:19:46;;;;;;;38.50;28.60;;;;;;;;;;5013853;28;20450;-77
2021/01/08 02:22:30;;;;;;;36.20;28.20;;;;;;;;;;4996198;28;20375;-77
2021/01/08 02:25:10;;;;;;;34.58;27.48;;;;;;;;;;5014617;28;20367;-77
2021/01/08 02:27:37;;;;;;;37.70;28.23;;;;;;;;;;5013619;28;20399;-77
2021/01/08 02:30:04;;;;;;;34.88;26.92;;;;;;;;;;4996295;28;20399;-77
2021/01/08 02:32:30;;;;;;;37.35;27.77;;;;;;;;;;5014485;28;20375;-77
2021/01/08 02:34:56;;;;;;;34.13;27.55;;;;;;;;;;5014128;28;20367;-77
2021/01/08 02:37:22;;;;;;;33.97;27.00;;;;;;;;;;5013790;28;20705;-77
2021/01/08 02:39:49;;;;;;;36.45;28.00;;;;;;;;;;5013277;28;20366;-78
2021/01/08 02:42:16;;;;;;;31.55;25.90;;;;;;;;;;5013802;28;20363;-77
2021/01/08 02:44:42;;;;;;;30.70;25.20;;;;;;;;;;5014023;28;20417;-77
2021/01/08 02:47:08;;;;;;;32.95;26.75;;;;;;;;;;4995976;28;20869;-77
2021/01/08 02:49:34;;;;;;;34.58;27.58;;;;;;;;;;5013556;28;20376;-78
2021/01/08 02:52:03;;;;;;;34.38;26.75;;;;;;;;;;5013419;28;20460;-76
2021/01/08 02:54:29;;;;;;;35.95;27.95;;;;;;;;;;5013149;28;20402;-77
2021/01/08 02:56:55;;;;;;;36.67;27.67;;;;;;;;;;5013214;28;20838;-77
2021/01/08 02:59:22;;;;;;;34.90;27.88;;;;;;;;;;4995984;28;20506;-77
2021/01/08 03:01:48;;;;;;;34.53;27.08;;;;;;;;;;5013656;28;20429;-76
2021/01/08 03:04:14;;;;;;;36.25;28.50;;;;;;;;;;5013866;28;20714;-77
2021/01/08 03:06:41;;;;;;;35.17;27.83;;;;;;;;;;5013029;28;20451;-77
2021/01/08 03:09:07;;;;;;;38.25;29.25;;;;;;;;;;5012943;28;20359;-77
2021/01/08 03:11:33;;;;;;;37.22;30.05;;;;;;;;;;5013447;28;20395;-77
2021/01/08 03:13:59;;;;;;;35.83;28.43;;;;;;;;;;5012826;28;20363;-77
2021/01/08 03:16:25;;;;;;;38.13;29.75;;;;;;;;;;5012921;28;20372;-77
2021/01/08 03:18:51;;;;;;;37.90;29.55;;;;;;;;;;4995643;28;20370;-77
2021/01/08 03:21:17;;;;;;;37.50;30.33;;;;;;;;;;5013279;28;21000;-77
2021/01/08 03:23:43;;;;;;;38.75;29.80;;;;;;;;;;5013009;28;20359;-77
2021/01/08 03:26:09;;;;;;;39.40;29.88;;;;;;;;;;4995429;28;20398;-77
2021/01/08 03:28:35;;;;;;;40.58;30.83;;;;;;;;;;5012594;28;20364;-77
2021/01/08 03:31:01;;;;;;;39.42;30.25;;;;;;;;;;4995279;28;20810;-76
2021/01/08 03:33:27;;;;;;;38.28;30.73;;;;;;;;;;4995525;28;20917;-77
2021/01/08 03:35:53;;;;;;;36.80;28.48;;;;;;;;;;5012613;28;20846;-77
2021/01/08 03:38:19;;;;;;;38.75;30.33;;;;;;;;;;4994948;28;20379;-77
2021/01/08 03:40:45;;;;;;;40.67;31.63;;;;;;;;;;4995401;28;20391;-77
2021/01/08 03:43:11;;;;;;;42.40;31.63;;;;;;;;;;4995172;28;20390;-78
2021/01/08 03:45:38;;;;;;;41.47;31.52;;;;;;;;;;5012490;28;20846;-76
2021/01/08 03:48:05;;;;;;;41.30;30.52;;;;;;;;;;5012819;28;20399;-77
2021/01/08 03:50:31;;;;;;;39.53;31.23;;;;;;;;;;5012343;28;20399;-78
2021/01/08 03:52:57;;;;;;;39.92;30.95;;;;;;;;;;5012425;28;20410;-78
2021/01/08 03:55:23;;;;;;;44.28;32.88;;;;;;;;;;4995071;28;20383;-77
2021/01/08 03:57:49;;;;;;;43.27;32.93;;;;;;;;;;5012414;28;20374;-77
2021/01/08 04:00:15;;;;;;;42.38;31.45;;;;;;;;;;5012289;28;20367;-77
2021/01/08 04:02:41;;;;;;;40.30;30.70;;;;;;;;;;4995044;28;20394;-77
2021/01/08 04:05:08;;;;;;;40.25;30.95;;;;;;;;;;5015219;28;20842;-78
2021/01/08 04:07:34;;;;;;;38.65;31.30;;;;;;;;;;5012402;28;20421;-77
2021/01/08 04:09:59;;;;;;;41.35;31.50;;;;;;;;;;5012211;28;20359;-77
2021/01/08 04:12:25;;;;;;;38.85;30.38;;;;;;;;;;5012285;28;20363;-78
2021/01/08 04:14:51;;;;;;;41.10;30.60;;;;;;;;;;5012226;28;20363;-77
2021/01/08 04:17:18;;;;;;;39.00;29.80;;;;;;;;;;5012250;28;20713;-77
2021/01/08 04:19:44;;;;;;;40.55;31.60;;;;;;;;;;5012478;28;20386;-77
2021/01/08 04:22:10;;;;;;;42.80;32.70;;;;;;;;;;4995704;28;20829;-77
2021/01/08 04:24:36;;;;;;;42.67;32.40;;;;;;;;;;4994827;28;20379;-77
2021/01/08 04:27:02;;;;;;;42.70;32.95;;;;;;;;;;4994788;28;20730;-77
2021/01/08 04:29:28;;;;;;;44.03;33.17;;;;;;;;;;5012263;28;20470;-77
2021/01/08 04:31:54;;;;;;;45.13;33.63;;;;;;;;;;5012184;28;20415;-77
2021/01/08 04:34:20;;;;;;;45.80;33.93;;;;;;;;;;4994734;28;20784;-77
2021/01/08 04:36:46;;;;;;;45.70;35.00;;;;;;;;;;5012021;28;20368;-77
2021/01/08 04:39:12;;;;;;;45.50;34.67;;;;;;;;;;5014941;28;20356;-77
2021/01/08 04:41:38;;;;;;;44.95;33.90;;;;;;;;;;5015623;28;20846;-77
2021/01/08 04:44:05;;;;;;;45.53;33.85;;;;;;;;;;5015870;28;20834;-76
2021/01/08 04:46:32;;;;;;;47.67;35.03;;;;;;;;;;4998198;28;20367;-77
2021/01/08 04:48:59;;;;;;;45.80;33.40;;;;;;;;;;4998177;28;20857;-78
2021/01/08 04:51:26;;;;;;;44.80;33.67;;;;;;;;;;5015701;28;20425;-77
2021/01/08 04:53:52;;;;;;;48.20;34.67;;;;;;;;;;5015353;28;20379;-77
2021/01/08 04:56:19;;;;;;;47.20;34.67;;;;;;;;;;4998076;28;20381;-77
2021/01/08 04:58:46;;;;;;;44.25;32.65;;;;;;;;;;5015669;28;20386;-77
2021/01/08 05:01:12;;;;;;;41.22;31.75;;;;;;;;;;5015589;28;20434;-76
2021/01/08 05:03:38;;;;;;;43.90;33.00;;;;;;;;;;5015284;28;20367;-77
2021/01/08 05:06:04;;;;;;;41.85;31.50;;;;;;;;;;5015255;28;20367;-77
2021/01/08 05:08:30;;;;;;;45.42;33.17;;;;;;;;;;4997818;28;20433;-77
2021/01/08 05:10:56;;;;;;;42.60;33.15;;;;;;;;;;5015092;28;20399;-77
2021/01/08 05:13:32;;;;;;;45.83;34.08;;;;;;;;;;5015050;28;20861;-77
2021/01/08 05:16:01;;;;;;;45.87;34.20;;;;;;;;;;5015917;28;20355;-77
2021/01/08 05:18:29;;;;;;;41.80;31.83;;;;;;;;;;4998508;28;20784;-77
2021/01/08 05:20:55;;;;;;;44.28;33.58;;;;;;;;;;5015030;28;20537;-77
2021/01/08 05:23:22;;;;;;;44.43;34.33;;;;;;;;;;5014850;28;20448;-77
2021/01/08 05:25:48;;;;;;;46.53;34.13;;;;;;;;;;5015393;28;20367;-77
2021/01/08 05:28:15;;;;;;;42.15;32.70;;;;;;;;;;5015014;28;20368;-76
2021/01/08 05:30:42;;;;;;;49.10;34.83;;;;;;;;;;4997189;28;20882;-77
2021/01/08 05:33:08;;;;;;;47.13;35.03;;;;;;;;;;5015693;28;20383;-78
2021/01/08 05:35:34;;;;;;;46.28;35.20;;;;;;;;;;5014853;28;20359;-77
2021/01/08 05:38:06;;;;;;;45.23;34.40;;;;;;;;;;5014968;28;20499;-76
2021/01/08 05:40:33;;;;;;;47.20;34.58;;;;;;;;;;4997149;28;20968;-77
2021/01/08 05:42:59;;;;;;;44.22;33.63;;;;;;;;;;5014805;28;20830;-77
2021/01/08 05:45:29;;;;;;;54.13;36.70;;;;;;;;;;5015311;28;20490;-77
2021/01/08 05:47:58;;;;;;;47.03;34.40;;;;;;;;;;5014493;28;20406;-77
2021/01/08 05:50:25;;;;;;;45.08;34.45;;;;;;;;;;5013161;28;20387;-77
2021/01/08 05:52:56;;;;;;;45.42;34.17;;;;;;;;;;5014266;28;20363;-76
2021/01/08 05:55:22;;;;;;;45.63;34.00;;;;;;;;;;5014534;28;20364;-77
2021/01/08 05:57:50;;;;;;;44.88;34.10;;;;;;;;;;5014199;28;20426;-77
2021/01/08 06:00:16;;;;;;;46.47;34.65;;;;;;;;;;5013957;28;20371;-77
2021/01/08 06:02:42;;;;;;;45.38;33.55;;;;;;;;;;5014359;28;20371;-77
2021/01/08 06:05:09;;;;;;;44.22;34.17;;;;;;;;;;5013928;28;20423;-77
2021/01/08 06:07:37;;;;;;;43.35;33.80;;;;;;;;;;5014001;28;20374;-78
2021/01/08 06:10:03;;;;;;;49.45;36.40;;;;;;;;;;5012923;28;20364;-79
2021/01/08 06:12:37;;;;;;;44.58;34.05;;;;;;;;;;5014351;28;20396;-80
2021/01/08 06:15:05;;;;;;;41.70;32.53;;;;;;;;;;5010160;28;20502;-80
2021/01/08 06:17:34;;;;;;;43.27;33.90;;;;;;;;;;4994037;28;21633;-79
2021/01/08 06:20:02;;;;;;;46.10;35.47;;;;;;;;;;4993998;28;20736;-78
2021/01/08 06:22:35;;;;;;;43.97;33.88;;;;;;;;;;4994311;28;20364;-78
2021/01/08 06:25:01;;;;;;;46.73;34.93;;;;;;;;;;4994205;28;20465;-78
2021/01/08 06:27:30;;;;;;;43.03;33.70;;;;;;;;;;5000882;28;20896;-78
2021/01/08 06:30:00;;;;;;;44.92;33.30;;;;;;;;;;5000926;28;20369;-78
2021/01/08 06:32:29;;;;;;;41.13;32.30;;;;;;;;;;4993911;28;20388;-78
2021/01/08 06:34:59;;;;;;;42.70;32.03;;;;;;;;;;5011044;28;20367;-81
2021/01/08 06:37:32;;;;;;;42.85;33.47;;;;;;;;;;5011822;28;20367;-78
2021/01/08 06:39:58;;;;;;;43.47;33.28;;;;;;;;;;5012036;28;20446;-78
2021/01/08 06:42:28;;;;;;;43.43;34.23;;;;;;;;;;5013158;28;20375;-78
2021/01/08 06:44:55;;;;;;;42.15;32.60;;;;;;;;;;5012442;28;20394;-80
2021/01/08 06:47:21;;;;;;;43.13;33.20;;;;;;;;;;5012236;28;20368;-80
2021/01/08 06:49:51;;;;;;;41.05;32.03;;;;;;;;;;5012360;28;20470;-79
2021/01/08 06:52:17;;;;;;;44.42;33.55;;;;;;;;;;5012115;28;20364;-80
2021/01/08 06:54:43;;;;;;;42.35;32.42;;;;;;;;;;5012247;28;20450;-78
2021/01/08 06:57:17;;;;;;;44.10;33.42;;;;;;;;;;5012118;28;20841;-78
2021/01/08 06:59:45;;;;;;;41.10;32.17;;;;;;;;;;5011955;28;21031;-79
2021/01/08 07:02:11;;;;;;;42.30;32.50;;;;;;;;;;5011517;28;20363;-78
2021/01/08 07:04:40;;;;;;;42.78;33.05;;;;;;;;;;5012203;28;20390;-81
2021/01/08 07:07:07;;;;;;;44.17;34.20;;;;;;;;;;5011444;28;20447;-79
2021/01/08 07:09:34;;;;;;;42.83;33.13;;;;;;;;;;5013883;28;20363;-81
2021/01/08 07:12:00;;;;;;;41.28;32.20;;;;;;;;;;5013996;28;20405;-79
2021/01/08 07:14:26;;;;;;;43.38;34.05;;;;;;;;;;5013098;28;20386;-84
2021/01/08 07:16:56;;;;;;;41.20;32.63;;;;;;;;;;5012763;28;20355;-80
2021/01/08 07:19:27;;;;;;;43.33;32.92;;;;;;;;;;5012745;28;20395;-80
2021/01/08 07:21:59;;;;;;;42.00;32.85;;;;;;;;;;5012731;28;20371;-79
2021/01/08 07:24:32;;;;;;;38.95;31.25;;;;;;;;;;5012672;28;20757;-78
2021/01/08 07:27:13;;;;;;;40.50;32.35;;;;;;;;;;5012704;28;20842;-79
2021/01/08 07:29:39;;;;;;;44.03;33.80;;;;;;;;;;5012029;28;20769;-86
2021/01/08 07:32:06;;;;;;;40.03;32.05;;;;;;;;;;5012583;28;20454;-78
2021/01/08 07:34:35;;;;;;;43.28;33.03;;;;;;;;;;5013132;28;20418;-80
2021/01/08 07:37:01;;;;;;;40.63;32.58;;;;;;;;;;5012598;28;20869;-77
2021/01/08 07:39:38;;;;;;;44.53;32.80;;;;;;;;;;5012381;28;20367;-79
2021/01/08 07:42:23;;;;;;;39.25;31.50;;;;;;;;;;5012969;28;20882;-82
2021/01/08 07:44:49;;;;;;;43.57;34.03;;;;;;;;;;5013063;28;20387;-78
2021/01/08 07:47:41;;;;;;;42.13;33.35;;;;;;;;;;5013273;28;20418;-78
2021/01/08 07:50:17;;;;;;;40.25;32.17;;;;;;;;;;5008501;28;20378;-79
2021/01/08 07:52:50;;;;;;;44.42;33.78;;;;;;;;;;5012602;28;20359;-77
2021/01/08 07:55:49;;;;;;;43.08;33.63;;;;;;;;;;5008405;28;20363;-78
2021/01/08 07:58:23;;;;;;;42.35;33.33;;;;;;;;;;4968598;28;20382;-77
2021/01/08 08:00:49;;;;;;;46.03;35.35;;;;;;;;;;5010800;28;20470;-78
2021/01/08 08:03:15;;;;;;;42.65;33.53;;;;;;;;;;5000363;28;20783;-77
2021/01/08 08:05:43;;;;;;;42.65;32.72;;;;;;;;;;4993376;28;20361;-78
2021/01/08 08:08:10;;;;;;;44.83;33.58;;;;;;;;;;4992956;28;20369;-80
2021/01/08 08:10:36;;;;;;;43.30;33.92;;;;;;;;;;4991325;28;20894;-79
2021/01/08 08:13:02;;;;;;;45.20;34.38;;;;;;;;;;4993250;28;20755;-77
2021/01/08 08:15:28;;;;;;;44.50;34.55;;;;;;;;;;4993923;28;20782;-77
2021/01/08 08:17:54;;;;;;;46.05;34.47;;;;;;;;;;4995688;28;20724;-77
2021/01/08 08:20:24;;;;;;;43.53;33.88;;;;;;;;;;4994952;28;20368;-77
2021/01/08 08:22:53;;;;;;;42.85;33.80;;;;;;;;;;4995425;28;20500;-77
2021/01/08 08:25:28;;;;;;;45.15;34.55;;;;;;;;;;4995087;28;20375;-78
2021/01/08 08:27:55;;;;;;;43.92;33.42;;;;;;;;;;4994902;28;20399;-78
2021/01/08 08:30:22;;;;;;;45.63;34.05;;;;;;;;;;4994629;28;20407;-78
2021/01/08 08:32:48;;;;;;;41.97;33.55;;;;;;;;;;4995308;28;20417;-81
2021/01/08 08:35:15;;;;;;;42.35;32.88;;;;;;;;;;5015629;28;20972;-77
2021/01/08 08:37:54;;;;;;;45.63;34.53;;;;;;;;;;5015396;28;20394;-78
2021/01/08 08:40:21;;;;;;;43.33;33.50;;;;;;;;;;5014760;28;20383;-79
2021/01/08 08:42:51;;;;;;;43.25;33.80;;;;;;;;;;5008068;28;20401;-79
2021/01/08 08:45:22;;;;;;;44.53;33.53;;;;;;;;;;5010022;28;20427;-79
2021/01/08 08:47:49;;;;;;;42.05;33.10;;;;;;;;;;4996834;28;20360;-83
2021/01/08 08:50:16;;;;;;;40.92;32.15;;;;;;;;;;5015140;28;20410;-79
2021/01/08 08:52:42;;;;;;;42.07;32.90;;;;;;;;;;4996094;28;20506;-81
2021/01/08 08:55:08;;;;;;;44.33;33.58;;;;;;;;;;4978507;28;20492;-81
2021/01/08 08:57:34;;;;;;;43.53;33.77;;;;;;;;;;5010469;28;21283;-78
2021/01/08 09:00:00;;;;;;;39.70;31.67;;;;;;;;;;5014942;28;20418;-81
2021/01/08 09:02:28;;;;;;;43.72;33.55;;;;;;;;;;5015464;28;20382;-79
2021/01/08 09:04:55;;;;;;;46.58;34.60;;;;;;;;;;5015254;28;20395;-79
2021/01/08 09:07:37;;;;;;;46.15;34.28;;;;;;;;;;5015321;28;20382;-77
2021/01/08 09:10:14;;;;;;;43.00;34.10;;;;;;;;;;5015370;28;20382;-77
2021/01/08 09:12:40;;;;;;;41.77;32.93;;;;;;;;;;5015869;28;20371;-82
2021/01/08 09:15:11;;;;;;;44.05;32.90;;;;;;;;;;5014121;28;20375;-78
2021/01/08 09:17:40;;;;;;;42.22;32.63;;;;;;;;;;5012389;28;20383;-80
2021/01/08 09:20:07;;;;;;;43.30;33.17;;;;;;;;;;5012472;28;20383;-78
2021/01/08 09:22:35;;;;;;;41.65;32.85;;;;;;;;;;4994446;28;20377;-76
2021/01/08 09:25:02;;;;;;;45.40;34.53;;;;;;;;;;5000953;28;20369;-79
2021/01/08 09:27:28;;;;;;;41.72;32.83;;;;;;;;;;5015954;28;20364;-80
2021/01/08 09:29:55;;;;;;;43.92;31.95;;;;;;;;;;5000895;28;20508;-82
2021/01/08 09:32:31;;;;;;;42.28;32.53;;;;;;;;;;5004147;28;20426;-77
2021/01/08 09:35:03;;;;;;;44.65;33.40;;;;;;;;;;5014544;28;20866;-78
2021/01/08 09:37:33;;;;;;;40.75;31.52;;;;;;;;;;5013622;28;20386;-80
2021/01/08 09:39:59;;;;;;;39.88;31.35;;;;;;;;;;5014659;28;20449;-78
2021/01/08 09:42:26;;;;;;;41.55;32.30;;;;;;;;;;5015100;28;20379;-84
2021/01/08 09:44:52;;;;;;;41.42;32.47;;;;;;;;;;5014839;28;20366;-82
2021/01/08 09:47:18;;;;;;;41.95;32.42;;;;;;;;;;5014490;28;20371;-77
2021/01/08 09:49:44;;;;;;;43.50;33.40;;;;;;;;;;5013004;28;20372;-81
2021/01/08 09:52:11;;;;;;;46.20;34.30;;;;;;;;;;5014900;28;20391;-76
2021/01/08 09:54:40;;;;;;;43.53;34.00;;;;;;;;;;5013824;28;20376;-78
2021/01/08 09:57:06;;;;;;;45.35;33.80;;;;;;;;;;5012716;28;20793;-77
2021/01/08 09:59:32;;;;;;;43.53;33.50;;;;;;;;;;5013597;28;20367;-83
2021/01/08 10:04:28;;;;;;;43.03;33.25;;;;;;;;;;5014201;28;20356;-80
2021/01/08 10:07:07;;;;;;;47.08;35.28;;;;;;;;;;5012206;28;20383;-78
2021/01/08 10:09:49;;;;;;;48.17;35.97;;;;;;;;;;5012489;28;20371;-80
2021/01/08 10:12:19;;;;;;;46.30;35.25;;;;;;;;;;5013287;28;20417;-79
2021/01/08 10:14:45;;;;;;;44.78;33.70;;;;;;;;;;5013806;28;20425;-78
2021/01/08 10:17:18;;;;;;;43.38;33.42;;;;;;;;;;5011872;28;20379;-80
2021/01/08 10:19:46;;;;;;;44.40;33.95;;;;;;;;;;5012571;28;20374;-81
2021/01/08 10:22:12;;;;;;;45.10;34.17;;;;;;;;;;5011730;28;20375;-80
2021/01/08 10:24:38;;;;;;;46.70;35.05;;;;;;;;;;5012183;28;20908;-82
2021/01/08 10:27:04;;;;;;;47.50;35.00;;;;;;;;;;5013013;28;20359;-81
2021/01/08 10:29:31;;;;;;;45.90;34.83;;;;;;;;;;5011320;28;20379;-78
2021/01/08 10:31:57;;;;;;;45.33;33.88;;;;;;;;;;5012918;28;20417;-79
2021/01/08 10:34:26;;;;;;;46.83;34.42;;;;;;;;;;5013341;28;20363;-79
2021/01/08 10:36:52;;;;;;;42.20;32.58;;;;;;;;;;5011043;28;20395;-82
2021/01/08 10:39:18;;;;;;;42.78;33.75;;;;;;;;;;5012503;28;20398;-80
2021/01/08 10:41:44;;;;;;;42.53;32.42;;;;;;;;;;5012966;28;20372;-82
2021/01/08 10:44:10;;;;;;;41.15;31.90;;;;;;;;;;5011145;28;20838;-79
2021/01/08 10:46:36;;;;;;;43.83;33.70;;;;;;;;;;5012545;28;20371;-81
2021/01/08 10:49:02;;;;;;;41.28;33.22;;;;;;;;;;5012842;28;20380;-81
2021/01/08 10:51:28;;;;;;;37.35;29.67;;;;;;;;;;5011301;28;20874;-80
2021/01/08 10:53:54;;;;;;;42.38;32.90;;;;;;;;;;5012720;28;20715;-80
2021/01/08 10:56:30;;;;;;;37.37;31.10;;;;;;;;;;5011579;28;20830;-80
2021/01/08 10:58:57;;;;;;;39.60;32.40;;;;;;;;;;4994109;28;20704;-81
2021/01/08 11:01:24;;;;;;;40.58;32.15;;;;;;;;;;5011905;28;20371;-83
2021/01/08 11:03:50;;;;;;;39.38;30.88;;;;;;;;;;5012136;28;20438;-79
2021/01/08 11:06:17;;;;;;;38.38;31.52;;;;;;;;;;5012571;28;20418;-84
2021/01/08 11:08:43;;;;;;;40.47;31.98;;;;;;;;;;5012082;28;20952;-78
2021/01/08 11:11:10;;;;;;;42.90;32.87;;;;;;;;;;5012896;28;20489;-77
2021/01/08 11:13:36;;;;;;;40.78;32.65;;;;;;;;;;5012709;28;20453;-77
2021/01/08 11:16:02;;;;;;;41.43;32.83;;;;;;;;;;5012773;28;20379;-82
2021/01/08 11:18:28;;;;;;;42.17;33.03;;;;;;;;;;5011743;28;20379;-82
2021/01/08 11:20:54;;;;;;;43.78;33.35;;;;;;;;;;5010428;28;20473;-77
2021/01/08 11:23:20;;;;;;;43.87;33.83;;;;;;;;;;5010817;28;20383;-81
2021/01/08 11:25:48;;;;;;;42.85;34.63;;;;;;;;;;5012879;28;20421;-81
2021/01/08 11:28:14;;;;;;;40.58;31.92;;;;;;;;;;5011906;28;20869;-79
2021/01/08 11:30:43;;;;;;;41.42;31.58;;;;;;;;;;5011634;28;20885;-79
2021/01/08 11:33:09;;;;;;;39.97;31.42;;;;;;;;;;5012915;28;20391;-78
2021/01/08 11:35:35;;;;;;;40.83;31.88;;;;;;;;;;5012970;28;20433;-81
2021/01/08 11:38:01;;;;;;;41.35;31.75;;;;;;;;;;5011758;28;20382;-78
2021/01/08 11:40:27;;;;;;;36.40;28.02;;;;;;;;;;5012055;28;20862;-80
2021/01/08 11:42:53;;;;;;;44.07;32.37;;;;;;;;;;5012375;28;20374;-79
2021/01/08 11:45:19;;;;;;;49.92;34.65;;;;;;;;;;5010775;28;20390;-83
2021/01/08 11:47:45;;;;;;;40.97;31.50;;;;;;;;;;5007662;28;20388;-81
2021/01/08 11:50:13;;;;;;;44.95;33.63;;;;;;;;;;5003646;28;20379;-81
2021/01/08 11:52:39;;;;;;;43.75;31.58;;;;;;;;;;5011966;28;20377;-81
2021/01/08 11:55:06;;;;;;;42.00;30.52;;;;;;;;;;5011061;28;20389;-83
2021/01/08 11:57:32;;;;;;;42.23;30.77;;;;;;;;;;5011149;28;20451;-84
2021/01/08 11:59:58;;;;;;;40.17;30.30;;;;;;;;;;5010714;28;20466;-77
2021/01/08 12:02:24;;;;;;;45.03;33.20;;;;;;;;;;5011144;28;20390;-79
2021/01/08 12:04:50;;;;;;;48.33;34.65;;;;;;;;;;5010163;28;20386;-81
2021/01/08 12:07:16;;;;;;;49.03;34.22;;;;;;;;;;5011768;28;21030;-78
2021/01/08 12:09:42;;;;;;;49.30;33.63;;;;;;;;;;5010236;28;20454;-81
2021/01/08 12:12:08;;;;;;;50.95;33.83;;;;;;;;;;5011021;28;20399;-79
2021/01/08 12:14:34;;;;;;;56.40;34.70;;;;;;;;;;5009367;28;20406;-80
2021/01/08 12:17:07;;;;;;;58.73;36.33;;;;;;;;;;5010922;28;21073;-80
2021/01/08 12:19:34;;;;;;;60.28;35.97;;;;;;;;;;5011366;28;20418;-77
2021/01/08 12:22:00;;;;;;;62.37;38.33;;;;;;;;;;5010191;28;20383;-79
2021/01/08 12:24:26;;;;;;;54.45;34.97;;;;;;;;;;5011021;28;20378;-80
2021/01/08 12:26:52;;;;;;;55.75;34.72;;;;;;;;;;5009767;28;20700;-82
2021/01/08 12:29:19;;;;;;;59.97;36.05;;;;;;;;;;5009211;28;20432;-78
2021/01/08 12:31:45;;;;;;;57.88;34.75;;;;;;;;;;5009651;28;20407;-79
2021/01/08 12:34:11;;;;;;;51.73;31.43;;;;;;;;;;5011080;28;20371;-83
2021/01/08 12:36:37;;;;;;;49.13;31.33;;;;;;;;;;5011275;28;20370;-83
2021/01/08 12:39:03;;;;;;;51.28;31.65;;;;;;;;;;5010800;28;20450;-78
2021/01/08 12:41:32;;;;;;;50.97;31.38;;;;;;;;;;5009884;28;21237;-82
2021/01/08 12:43:59;;;;;;;54.70;33.85;;;;;;;;;;5011301;28;20375;-80
2021/01/08 12:46:25;;;;;;;52.90;33.50;;;;;;;;;;5006765;28;20388;-79
2021/01/08 12:48:51;;;;;;;52.35;31.45;;;;;;;;;;5011206;28;20481;-80
2021/01/08 12:51:18;;;;;;;51.33;31.33;;;;;;;;;;5010734;28;20442;-80
2021/01/08 12:53:44;;;;;;;43.85;28.70;;;;;;;;;;5011588;28;20370;-82
2021/01/08 12:56:10;;;;;;;42.08;27.58;;;;;;;;;;4991857;28;20832;-78
2021/01/08 12:58:36;;;;;;;42.20;28.00;;;;;;;;;;5008470;28;20472;-78
2021/01/08 13:01:02;;;;;;;39.85;26.10;;;;;;;;;;5014686;28;20421;-77
2021/01/08 13:03:28;;;;;;;40.80;26.57;;;;;;;;;;5014872;28;20462;-81
2021/01/08 13:05:54;;;;;;;38.20;24.27;;;;;;;;;;5013364;28;20459;-84
2021/01/08 13:08:20;;;;;;;35.35;24.63;;;;;;;;;;5014840;28;20363;-81
2021/01/08 13:10:49;;;;;;;35.63;24.63;;;;;;;;;;5014452;28;20889;-81
2021/01/08 13:13:16;;;;;;;37.80;25.83;;;;;;;;;;5014441;28;20372;-84
2021/01/08 13:15:45;;;;;;;36.05;24.52;;;;;;;;;;5014927;28;20861;-82
2021/01/08 13:18:11;;;;;;;34.58;23.73;;;;;;;;;;5012064;28;20857;-78
2021/01/08 13:20:37;;;;;;;34.90;24.77;;;;;;;;;;5013851;28;20920;-77
2021/01/08 13:23:03;;;;;;;36.92;24.83;;;;;;;;;;5014290;28;20379;-82
2021/01/08 13:25:29;;;;;;;39.80;24.92;;;;;;;;;;5016139;28;20364;-82
2021/01/08 13:27:55;;;;;;;32.50;23.48;;;;;;;;;;5016811;28;20375;-81
2021/01/08 13:30:21;;;;;;;34.43;23.83;;;;;;;;;;5013616;28;20480;-85
2021/01/08 13:32:47;;;;;;;32.22;22.65;;;;;;;;;;5002228;28;20957;-77
2021/01/08 13:35:13;;;;;;;29.60;20.00;;;;;;;;;;5013519;28;20458;-76
2021/01/08 13:37:39;;;;;;;29.35;19.67;;;;;;;;;;5012985;28;20807;-82
2021/01/08 13:40:07;;;;;;;28.52;19.27;;;;;;;;;;4993242;28;20369;-80
2021/01/08 13:42:33;;;;;;;25.42;18.75;;;;;;;;;;5006915;28;20757;-80
2021/01/08 13:44:59;;;;;;;27.17;19.17;;;;;;;;;;4991776;28;20357;-81
2021/01/08 13:47:28;;;;;;;25.95;19.15;;;;;;;;;;5003740;28;20402;-83
2021/01/08 13:49:54;;;;;;;23.35;16.90;;;;;;;;;;5011109;28;20600;-76
2021/01/08 13:52:20;;;;;;;27.85;20.30;;;;;;;;;;5011116;28;20951;-85
2021/01/08 13:54:47;;;;;;;14.02;10.57;;;;;;;;;;5011475;28;20383;-77
2021/01/08 13:57:15;;;;;;;12.40;10.38;;;;;;;;;;5011052;28;20383;-77
2021/01/08 13:59:42;;;;;;;10.15;9.02;;;;;;;;;;5012035;28;20794;-78
2021/01/08 14:02:08;;;;;;;10.68;9.57;;;;;;;;;;4996568;28;20379;-77
2021/01/08 14:04:33;;;;;;;11.20;10.00;;;;;;;;;;5012702;28;20390;-78
2021/01/08 14:07:00;;;;;;;10.82;9.73;;;;;;;;;;5013356;28;20406;-79
2021/01/08 14:09:27;;;;;;;11.33;10.23;;;;;;;;;;5014348;28;20374;-76
2021/01/08 14:11:58;;;;;;;9.93;9.00;;;;;;;;;;5014473;28;20881;-78
2021/01/08 14:14:24;;;;;;;10.60;9.50;;;;;;;;;;5014117;28;20458;-81
2021/01/08 14:16:54;;;;;;;9.70;8.80;;;;;;;;;;5012351;28;20363;-76
2021/01/08 14:19:21;;;;;;;9.60;8.70;;;;;;;;;;4995263;28;20379;-85
2021/01/08 14:21:47;;;;;;;9.82;8.88;;;;;;;;;;5013131;28;20876;-84